Time;durP1;ratioP1;P1;durP2;ratioP2;P2;SDS_P1;SDS_P2;PMS_P1;PMS_P2;Temp;Humidity;BMP_temperature;BMP_pressure;BME280_temperature;BME280_humidity;BME280_pressure;Samples;Min_cycle;Max_cycle;Signal;HPM_P1;HPM_P2
2023/10/27 00:00:54;;;;;;;11.33;7.60;;;10.60;99.90;;;;;;4129550;28;20037;-61
2023/10/27 00:02:55;;;;;;;13.37;7.17;;;10.60;99.90;;;;;;4130184;28;20042;-63
2023/10/27 00:04:57;;;;;;;12.13;7.33;;;10.60;99.90;;;;;;4130410;28;20042;-63
2023/10/27 00:06:59;;;;;;;11.67;7.37;;;10.60;99.90;;;;;;4129589;28;20034;-62
2023/10/27 00:09:00;;;;;;;9.13;6.53;;;10.70;99.90;;;;;;4129125;28;20073;-62
2023/10/27 00:11:05;;;;;;;11.10;7.20;;;10.70;99.90;;;;;;4130053;28;20038;-62
2023/10/27 00:13:06;;;;;;;12.37;8.60;;;10.70;99.90;;;;;;4129718;28;20050;-60
2023/10/27 00:15:07;;;;;;;14.37;8.73;;;10.70;99.90;;;;;;4128389;28;20026;-60
2023/10/27 00:17:08;;;;;;;13.53;9.20;;;10.70;99.90;;;;;;4130366;28;20073;-60
2023/10/27 00:19:09;;;;;;;15.03;9.53;;;10.70;99.90;;;;;;4127640;28;20370;-61
2023/10/27 00:21:11;;;;;;;11.60;8.30;;;10.70;99.90;;;;;;4114430;28;20557;-60
2023/10/27 00:23:12;;;;;;;15.73;8.40;;;10.70;99.90;;;;;;4113572;28;20031;-60
2023/10/27 00:25:13;;;;;;;14.27;8.83;;;10.80;99.90;;;;;;4114573;28;20022;-63
2023/10/27 00:27:14;;;;;;;9.87;7.07;;;10.80;99.90;;;;;;4113300;28;20545;-60
2023/10/27 00:29:15;;;;;;;11.30;7.53;;;10.90;99.90;;;;;;4115003;28;20078;-63
2023/10/27 00:31:16;;;;;;;13.33;7.53;;;10.80;99.90;;;;;;4114921;28;20027;-64
2023/10/27 00:33:18;;;;;;;15.17;7.93;;;10.80;99.90;;;;;;4129998;28;20034;-63
2023/10/27 00:35:19;;;;;;;12.33;7.83;;;10.80;99.90;;;;;;4130019;28;20035;-57
2023/10/27 00:37:20;;;;;;;12.13;7.90;;;10.80;99.90;;;;;;4129706;28;20050;-60
2023/10/27 00:39:21;;;;;;;12.07;7.60;;;10.80;99.90;;;;;;4130204;28;20034;-60
2023/10/27 00:41:24;;;;;;;9.57;6.93;;;10.80;99.90;;;;;;4129852;28;20101;-60
2023/10/27 00:43:25;;;;;;;12.50;7.67;;;10.80;99.90;;;;;;4130168;28;20129;-61
2023/10/27 00:45:26;;;;;;;10.90;7.43;;;10.80;99.90;;;;;;4129096;28;20034;-62
2023/10/27 00:47:30;;;;;;;11.17;7.63;;;10.80;99.90;;;;;;4130518;28;20128;-61
2023/10/27 00:49:31;;;;;;;13.37;7.50;;;10.70;99.90;;;;;;4129358;28;20039;-63
2023/10/27 00:51:33;;;;;;;12.90;9.00;;;10.70;99.90;;;;;;4130170;28;20085;-61
2023/10/27 00:53:34;;;;;;;12.07;8.17;;;10.60;99.90;;;;;;4128951;28;20390;-63
2023/10/27 00:55:37;;;;;;;14.33;7.70;;;10.60;99.90;;;;;;4130438;28;20030;-60
2023/10/27 00:57:38;;;;;;;13.00;8.10;;;10.60;99.90;;;;;;4128997;28;20149;-59
2023/10/27 00:59:40;;;;;;;11.93;7.57;;;10.60;99.90;;;;;;4130558;28;20050;-61
2023/10/27 01:01:42;;;;;;;11.23;7.70;;;10.60;99.90;;;;;;4129033;28;20633;-61
2023/10/27 01:03:44;;;;;;;13.40;7.77;;;10.60;99.90;;;;;;4130174;28;20447;-62
2023/10/27 01:05:45;;;;;;;10.67;7.30;;;10.50;99.90;;;;;;4129023;28;20023;-64
2023/10/27 01:07:46;;;;;;;10.77;8.27;;;10.50;99.90;;;;;;4129874;28;20116;-62
2023/10/27 01:09:47;;;;;;;14.00;7.90;;;10.50;99.90;;;;;;4129239;28;20553;-63
2023/10/27 01:11:49;;;;;;;13.33;7.87;;;10.50;99.90;;;;;;4129276;28;20073;-60
2023/10/27 01:13:54;;;;;;;12.83;8.00;;;10.50;99.90;;;;;;4129164;28;20046;-61
2023/10/27 01:15:56;;;;;;;9.60;7.23;;;10.50;99.90;;;;;;4128629;28;20533;-61
2023/10/27 01:17:57;;;;;;;10.93;7.27;;;10.50;99.90;;;;;;4128765;28;20737;-61
2023/10/27 01:19:58;;;;;;;11.50;7.80;;;10.50;99.90;;;;;;4128757;28;20030;-61
2023/10/27 01:21:59;;;;;;;11.17;7.67;;;10.50;99.90;;;;;;4129566;28;20116;-61
2023/10/27 01:24:02;;;;;;;9.73;7.43;;;10.50;99.90;;;;;;4127948;28;20030;-61
2023/10/27 01:26:04;;;;;;;10.33;7.10;;;10.50;99.90;;;;;;4129405;28;20034;-61
2023/10/27 01:28:06;;;;;;;11.67;7.63;;;10.50;99.90;;;;;;4127757;28;20081;-61
2023/10/27 01:30:09;;;;;;;17.67;7.60;;;10.60;99.90;;;;;;4130220;28;20054;-60
2023/10/27 01:32:10;;;;;;;9.67;7.73;;;10.60;99.90;;;;;;4127931;28;20450;-60
2023/10/27 01:34:11;;;;;;;12.70;8.63;;;10.60;99.90;;;;;;4126122;28;20042;-61
2023/10/27 01:36:12;;;;;;;12.40;7.87;;;10.70;99.90;;;;;;4128430;28;20089;-61
2023/10/27 01:38:13;;;;;;;11.83;7.73;;;10.70;99.90;;;;;;4129434;28;20081;-57
2023/10/27 01:40:14;;;;;;;12.23;7.97;;;10.70;99.90;;;;;;4128400;28;20115;-58
2023/10/27 01:42:15;;;;;;;8.93;7.17;;;10.70;99.90;;;;;;4129008;28;20560;-61
2023/10/27 01:44:17;;;;;;;13.30;8.13;;;10.70;99.90;;;;;;4128833;28;20509;-60
2023/10/27 01:46:18;;;;;;;15.60;9.37;;;10.70;99.90;;;;;;4128299;28;20088;-64
2023/10/27 01:48:19;;;;;;;15.00;9.20;;;10.60;99.90;;;;;;4129024;28;20490;-61
2023/10/27 01:50:20;;;;;;;13.73;8.57;;;10.60;99.90;;;;;;4128370;28;20034;-58
2023/10/27 01:52:21;;;;;;;14.87;8.10;;;10.60;99.90;;;;;;4129178;28;20038;-60
2023/10/27 01:54:22;;;;;;;13.80;8.33;;;10.60;99.90;;;;;;4128112;28;20465;-59
2023/10/27 01:56:23;;;;;;;16.30;8.10;;;10.70;99.90;;;;;;4129354;28;20034;-61
2023/10/27 01:58:27;;;;;;;13.13;8.10;;;10.70;99.90;;;;;;4128297;28;20088;-62
2023/10/27 02:00:28;;;;;;;11.50;7.70;;;10.70;99.90;;;;;;4128878;28;20077;-59
2023/10/27 02:02:29;;;;;;;12.93;8.43;;;10.70;99.90;;;;;;4128156;28;20026;-60
2023/10/27 02:04:35;;;;;;;16.43;8.57;;;10.70;99.90;;;;;;4113161;28;20046;-60
2023/10/27 02:06:36;;;;;;;14.67;8.37;;;10.70;99.90;;;;;;4127003;28;20030;-61
2023/10/27 02:08:38;;;;;;;13.47;8.73;;;10.70;99.90;;;;;;4129087;28;20415;-61
2023/10/27 02:10:39;;;;;;;13.77;9.03;;;10.80;99.90;;;;;;4127868;28;20474;-58
2023/10/27 02:12:40;;;;;;;16.23;8.70;;;10.70;99.90;;;;;;4128754;28;20162;-61
2023/10/27 02:14:42;;;;;;;13.67;10.80;;;10.60;99.90;;;;;;4128538;28;20073;-60
2023/10/27 02:16:43;;;;;;;13.83;8.70;;;10.60;99.90;;;;;;4127787;28;20054;-60
2023/10/27 02:18:45;;;;;;;16.87;8.50;;;10.50;99.90;;;;;;4128864;28;20062;-60
2023/10/27 02:20:49;;;;;;;12.87;8.70;;;10.60;99.90;;;;;;4128023;28;20450;-61
2023/10/27 02:22:50;;;;;;;12.43;9.70;;;10.60;99.90;;;;;;4128767;28;20026;-60
2023/10/27 02:24:51;;;;;;;16.13;9.27;;;10.60;99.90;;;;;;4127940;28;20037;-60
2023/10/27 02:26:52;;;;;;;14.73;9.77;;;10.60;99.90;;;;;;4129128;28;20045;-60
2023/10/27 02:28:53;;;;;;;15.87;8.80;;;10.50;99.90;;;;;;4128377;28;20050;-60
2023/10/27 02:30:55;;;;;;;12.33;8.80;;;10.40;99.90;;;;;;4128777;28;20034;-62
2023/10/27 02:32:56;;;;;;;15.13;9.23;;;10.40;99.90;;;;;;4127212;28;20116;-60
2023/10/27 02:34:57;;;;;;;14.53;9.40;;;10.30;99.90;;;;;;4129065;28;20066;-60
2023/10/27 02:36:59;;;;;;;17.97;11.73;;;10.30;99.90;;;;;;4127503;28;20046;-61
2023/10/27 02:39:00;;;;;;;18.93;11.57;;;10.30;99.90;;;;;;4127359;28;20486;-61
2023/10/27 02:41:11;;;;;;;13.67;9.73;;;10.20;99.90;;;;;;4127670;28;20097;-63
2023/10/27 02:43:12;;;;;;;13.60;9.90;;;10.20;99.90;;;;;;4128176;28;20030;-64
2023/10/27 02:45:14;;;;;;;17.03;10.40;;;10.20;99.90;;;;;;4127387;28;20015;-61
2023/10/27 02:47:16;;;;;;;17.10;11.47;;;10.20;99.90;;;;;;4128063;28;20089;-62
2023/10/27 02:49:17;;;;;;;14.70;10.30;;;10.20;99.90;;;;;;4125869;28;20483;-61
2023/10/27 02:51:18;;;;;;;16.73;10.90;;;10.20;99.90;;;;;;4128023;28;20050;-61
2023/10/27 02:53:20;;;;;;;18.77;12.03;;;10.20;99.90;;;;;;4127742;28;20030;-60
2023/10/27 02:55:21;;;;;;;21.67;11.53;;;10.20;99.90;;;;;;4127374;28;20236;-60
2023/10/27 02:57:22;;;;;;;19.50;11.40;;;10.20;99.90;;;;;;4128445;28;20089;-61
2023/10/27 02:59:23;;;;;;;19.93;11.50;;;10.20;99.90;;;;;;4127542;28;20097;-61
2023/10/27 03:01:24;;;;;;;18.00;11.00;;;10.10;99.90;;;;;;4128768;28;20042;-61
2023/10/27 03:03:27;;;;;;;19.87;11.33;;;10.20;99.90;;;;;;4127660;28;20094;-60
2023/10/27 03:05:28;;;;;;;17.77;11.87;;;10.10;99.90;;;;;;4129125;28;20114;-61
2023/10/27 03:07:30;;;;;;;19.10;11.13;;;10.20;99.90;;;;;;4127592;28;20038;-61
2023/10/27 03:09:31;;;;;;;16.20;9.90;;;10.20;99.90;;;;;;4128511;28;20042;-63
2023/10/27 03:11:32;;;;;;;14.13;9.50;;;10.20;99.90;;;;;;4127154;28;20085;-59
2023/10/27 03:13:33;;;;;;;11.83;8.27;;;10.20;99.90;;;;;;4128527;28;20035;-64
2023/10/27 03:15:37;;;;;;;14.13;8.93;;;10.20;99.90;;;;;;4127845;28;20034;-61
2023/10/27 03:17:38;;;;;;;15.27;9.60;;;10.20;99.90;;;;;;4128339;28;20047;-61
2023/10/27 03:19:39;;;;;;;14.80;9.13;;;10.20;99.90;;;;;;4127580;28;20455;-61
2023/10/27 03:21:41;;;;;;;13.80;8.00;;;10.30;99.90;;;;;;4128100;28;20470;-61
2023/10/27 03:23:42;;;;;;;12.63;8.10;;;10.30;99.90;;;;;;4127836;28;20042;-61
2023/10/27 03:25:43;;;;;;;12.93;8.80;;;10.30;99.90;;;;;;4127757;28;20406;-60
2023/10/27 03:27:44;;;;;;;12.77;8.10;;;10.30;99.90;;;;;;4128178;28;20092;-61
2023/10/27 03:29:45;;;;;;;15.30;8.33;;;10.30;99.90;;;;;;4128004;28;20089;-61
2023/10/27 03:31:48;;;;;;;14.53;8.70;;;10.40;99.90;;;;;;4127656;28;20086;-61
2023/10/27 03:33:51;;;;;;;12.17;8.67;;;10.30;99.90;;;;;;4111161;28;20039;-61
2023/10/27 03:35:52;;;;;;;9.53;7.50;;;10.40;99.90;;;;;;4112368;28;20027;-59
2023/10/27 03:37:54;;;;;;;11.27;7.57;;;10.40;99.90;;;;;;4111156;28;20046;-59
2023/10/27 03:39:55;;;;;;;11.80;7.67;;;10.50;99.90;;;;;;4121089;28;20108;-61
2023/10/27 03:41:56;;;;;;;10.70;7.73;;;10.50;99.90;;;;;;4127052;28;20043;-61
2023/10/27 03:43:58;;;;;;;11.60;8.20;;;10.50;99.90;;;;;;4128122;28;20034;-61
2023/10/27 03:45:59;;;;;;;13.30;7.80;;;10.50;99.90;;;;;;4126983;28;20042;-63
2023/10/27 03:48:00;;;;;;;12.60;8.10;;;10.60;99.90;;;;;;4127926;28;20085;-61
2023/10/27 03:50:01;;;;;;;13.07;7.80;;;10.60;99.90;;;;;;4128545;28;20035;-62
2023/10/27 03:52:03;;;;;;;12.70;7.87;;;10.70;99.90;;;;;;4128781;28;20069;-61
2023/10/27 03:54:04;;;;;;;10.10;7.33;;;10.60;99.90;;;;;;4122813;28;20493;-58
2023/10/27 03:56:05;;;;;;;11.33;7.17;;;10.70;99.90;;;;;;4129023;28;20030;-61
2023/10/27 03:58:13;;;;;;;14.20;7.60;;;10.70;99.90;;;;;;4130787;28;20085;-61
2023/10/27 04:00:15;;;;;;;10.17;7.00;;;10.70;99.90;;;;;;4129629;28;20049;-61
2023/10/27 04:02:16;;;;;;;12.20;7.40;;;10.70;99.90;;;;;;4130565;28;20026;-62
2023/10/27 04:04:17;;;;;;;9.10;7.23;;;10.70;99.90;;;;;;4129983;28;20069;-61
2023/10/27 04:06:19;;;;;;;10.93;7.60;;;10.70;99.90;;;;;;4129851;28;20034;-60
2023/10/27 04:08:20;;;;;;;9.77;6.33;;;10.70;99.90;;;;;;4129393;28;20054;-63
2023/10/27 04:10:21;;;;;;;10.17;7.40;;;10.70;99.90;;;;;;4130972;28;20046;-61
2023/10/27 04:12:22;;;;;;;13.13;7.70;;;10.80;99.90;;;;;;4128293;28;20113;-60
2023/10/27 04:14:23;;;;;;;14.70;8.37;;;10.80;99.90;;;;;;4130186;28;20438;-64
2023/10/27 04:16:25;;;;;;;8.83;6.83;;;10.80;99.90;;;;;;4128754;28;20116;-60
2023/10/27 04:18:26;;;;;;;10.13;7.77;;;10.80;99.90;;;;;;4130566;28;20042;-66
2023/10/27 04:20:27;;;;;;;10.30;7.23;;;10.80;99.90;;;;;;4129133;28;20030;-63
2023/10/27 04:22:28;;;;;;;11.47;6.73;;;10.80;99.90;;;;;;4130068;28;20026;-60
2023/10/27 04:24:29;;;;;;;12.80;7.33;;;10.80;99.90;;;;;;4126233;28;20100;-61
2023/10/27 04:26:31;;;;;;;12.17;8.33;;;10.80;99.90;;;;;;4129710;28;20525;-61
2023/10/27 04:28:32;;;;;;;10.50;7.73;;;10.90;99.90;;;;;;4129732;28;20149;-60
2023/10/27 04:30:36;;;;;;;14.27;9.17;;;10.90;99.90;;;;;;4129663;28;20042;-60
2023/10/27 04:32:40;;;;;;;20.47;10.20;;;10.90;99.90;;;;;;4130004;28;20089;-57
2023/10/27 04:34:44;;;;;;;13.27;8.37;;;10.90;99.90;;;;;;4129077;28;20034;-59
2023/10/27 04:36:46;;;;;;;15.43;9.33;;;10.90;99.90;;;;;;4130216;28;20483;-60
2023/10/27 04:38:47;;;;;;;22.10;9.77;;;10.90;99.90;;;;;;4128739;28;20030;-58
2023/10/27 04:40:51;;;;;;;19.33;9.90;;;10.90;99.90;;;;;;4130187;28;20022;-58
2023/10/27 04:42:53;;;;;;;15.50;8.50;;;10.90;99.90;;;;;;4129215;28;20419;-60
2023/10/27 04:44:54;;;;;;;14.50;8.73;;;10.90;99.90;;;;;;4128639;28;20030;-59
2023/10/27 04:46:55;;;;;;;12.43;8.30;;;10.90;99.90;;;;;;4127183;28;20073;-58
2023/10/27 04:48:57;;;;;;;25.83;9.77;;;10.90;99.90;;;;;;4129658;28;20449;-61
2023/10/27 04:51:04;;;;;;;12.23;8.17;;;10.90;99.90;;;;;;4127526;28;20027;-61
2023/10/27 04:53:05;;;;;;;17.57;9.03;;;10.90;99.90;;;;;;4129932;28;20030;-60
2023/10/27 04:55:07;;;;;;;12.80;8.70;;;10.90;99.90;;;;;;4127158;28;20071;-58
2023/10/27 04:57:08;;;;;;;14.07;9.50;;;10.90;99.90;;;;;;4129547;28;20030;-60
2023/10/27 04:59:10;;;;;;;13.83;8.60;;;10.90;99.90;;;;;;4129204;28;20089;-61
2023/10/27 05:01:12;;;;;;;14.50;8.27;;;10.90;99.90;;;;;;4128052;28;20164;-61
2023/10/27 05:03:13;;;;;;;13.17;8.57;;;10.80;99.90;;;;;;4128678;28;20608;-60
2023/10/27 05:05:15;;;;;;;12.77;9.07;;;10.80;99.90;;;;;;4127593;28;20026;-60
2023/10/27 05:07:16;;;;;;;14.67;9.10;;;10.80;99.90;;;;;;4129409;28;20050;-60
2023/10/27 05:09:18;;;;;;;13.40;8.83;;;10.80;99.90;;;;;;4128589;28;20050;-60
2023/10/27 05:11:20;;;;;;;13.20;8.07;;;10.80;99.90;;;;;;4130045;28;20046;-61
2023/10/27 05:13:21;;;;;;;18.63;9.17;;;10.80;99.90;;;;;;4128670;28;20053;-60
2023/10/27 05:15:22;;;;;;;13.60;9.47;;;10.80;99.90;;;;;;4129908;28;20038;-60
2023/10/27 05:17:23;;;;;;;14.30;7.87;;;10.80;99.90;;;;;;4128547;28;20093;-61
2023/10/27 05:19:24;;;;;;;11.00;8.07;;;10.90;99.90;;;;;;4129803;28;20454;-60
2023/10/27 05:21:26;;;;;;;13.43;8.17;;;10.90;99.90;;;;;;4128487;28;20387;-59
2023/10/27 05:23:27;;;;;;;13.47;8.40;;;10.90;99.90;;;;;;4129841;28;20078;-61
2023/10/27 05:25:29;;;;;;;15.60;9.50;;;10.90;99.90;;;;;;4128739;28;20488;-60
2023/10/27 05:27:30;;;;;;;15.33;9.63;;;11.00;99.90;;;;;;4129358;28;20449;-60
2023/10/27 05:29:31;;;;;;;14.70;8.63;;;11.00;99.90;;;;;;4128805;28;20168;-60
2023/10/27 05:31:34;;;;;;;16.73;9.13;;;11.00;99.90;;;;;;4128732;28;20433;-60
2023/10/27 05:33:35;;;;;;;10.87;7.80;;;11.10;99.90;;;;;;4129151;28;20103;-60
2023/10/27 05:35:36;;;;;;;11.03;7.70;;;11.10;99.90;;;;;;4128223;28;20109;-60
2023/10/27 05:37:38;;;;;;;9.43;7.10;;;11.10;99.90;;;;;;4129067;28;20108;-60
2023/10/27 05:39:39;;;;;;;17.63;8.27;;;11.10;99.90;;;;;;4128124;28;20544;-60
2023/10/27 05:41:40;;;;;;;17.13;8.10;;;11.20;99.90;;;;;;4129190;28;20483;-60
2023/10/27 05:43:41;;;;;;;19.37;9.23;;;11.20;99.90;;;;;;4127925;28;20101;-61
2023/10/27 05:45:42;;;;;;;15.97;9.37;;;11.20;99.90;;;;;;4129008;28;20101;-60
2023/10/27 05:47:43;;;;;;;17.60;10.30;;;11.30;99.90;;;;;;4127846;28;20478;-60
2023/10/27 05:49:45;;;;;;;17.37;9.83;;;11.40;99.90;;;;;;4129138;28;20463;-61
2023/10/27 05:51:47;;;;;;;18.03;10.40;;;11.40;99.90;;;;;;4127609;28;20475;-61
2023/10/27 05:53:48;;;;;;;21.80;9.83;;;11.40;99.90;;;;;;4128885;28;20463;-58
2023/10/27 05:55:49;;;;;;;21.20;11.30;;;11.40;99.90;;;;;;4127921;28;20022;-60
2023/10/27 05:57:50;;;;;;;18.77;10.90;;;11.50;99.90;;;;;;4129147;28;20038;-59
2023/10/27 05:59:51;;;;;;;18.93;9.93;;;11.60;99.90;;;;;;4128424;28;20410;-61
2023/10/27 06:01:54;;;;;;;20.73;11.37;;;11.60;99.90;;;;;;4128451;28;20036;-60
2023/10/27 06:03:57;;;;;;;22.53;11.50;;;11.70;99.90;;;;;;4128448;28;20030;-61
2023/10/27 06:05:58;;;;;;;20.53;11.00;;;11.70;99.90;;;;;;4128051;28;20084;-60
2023/10/27 06:07:59;;;;;;;18.67;9.83;;;11.80;99.90;;;;;;4128706;28;20104;-63
2023/10/27 06:10:00;;;;;;;20.40;10.20;;;11.80;99.90;;;;;;4127863;28;20179;-61
2023/10/27 06:12:02;;;;;;;24.13;10.63;;;11.80;99.90;;;;;;4128327;28;20034;-60
2023/10/27 06:14:03;;;;;;;17.73;9.90;;;11.80;99.90;;;;;;4127219;28;20414;-60
2023/10/27 06:16:06;;;;;;;20.30;10.67;;;11.80;99.90;;;;;;4128269;28;20097;-59
2023/10/27 06:18:07;;;;;;;18.97;11.13;;;11.90;99.90;;;;;;4127920;28;20104;-62
2023/10/27 06:20:08;;;;;;;21.37;10.83;;;11.90;99.90;;;;;;4128960;28;20057;-61
2023/10/27 06:22:09;;;;;;;18.27;10.37;;;11.90;99.90;;;;;;4127754;28;20042;-62
2023/10/27 06:24:10;;;;;;;19.80;11.97;;;11.80;99.90;;;;;;4128837;28;20022;-61
2023/10/27 06:26:12;;;;;;;21.00;11.53;;;11.80;99.90;;;;;;4127888;28;20891;-61
2023/10/27 06:28:13;;;;;;;26.87;11.87;;;11.90;99.90;;;;;;4128589;28;20050;-60
2023/10/27 06:30:14;;;;;;;25.93;11.27;;;11.90;99.90;;;;;;4127945;28;20152;-60
2023/10/27 06:32:15;;;;;;;27.97;16.03;;;11.90;99.90;;;;;;4128811;28;20502;-62
2023/10/27 06:34:17;;;;;;;29.23;12.33;;;11.90;99.90;;;;;;4128158;28;20483;-60
2023/10/27 06:36:18;;;;;;;20.50;12.20;;;11.90;99.90;;;;;;4127919;28;20030;-61
2023/10/27 06:38:19;;;;;;;28.87;12.27;;;12.00;99.90;;;;;;4128303;28;20101;-62
2023/10/27 06:40:21;;;;;;;19.77;12.00;;;12.00;99.90;;;;;;4127193;28;20030;-60
2023/10/27 06:42:22;;;;;;;28.37;12.03;;;12.00;99.90;;;;;;4128558;28;20455;-60
2023/10/27 06:44:24;;;;;;;21.27;12.87;;;12.10;99.90;;;;;;4127521;28;20043;-60
2023/10/27 06:46:25;;;;;;;22.40;11.17;;;12.00;99.90;;;;;;4126840;28;20437;-60
2023/10/27 06:48:26;;;;;;;17.23;9.63;;;12.10;99.90;;;;;;4127403;28;20097;-60
2023/10/27 06:50:27;;;;;;;24.60;10.93;;;12.20;99.90;;;;;;4128670;28;20106;-61
2023/10/27 06:52:29;;;;;;;20.20;9.77;;;12.20;99.90;;;;;;4127088;28;20085;-60
2023/10/27 06:54:30;;;;;;;19.43;10.60;;;12.20;99.90;;;;;;4128326;28;20426;-61
2023/10/27 06:56:31;;;;;;;24.80;12.40;;;12.30;99.90;;;;;;4127287;28;20481;-62
2023/10/27 06:58:32;;;;;;;25.10;13.47;;;12.30;99.90;;;;;;4128314;28;20455;-59
2023/10/27 07:00:33;;;;;;;27.23;11.60;;;12.30;99.90;;;;;;4127817;28;20744;-60
2023/10/27 07:02:34;;;;;;;25.87;12.97;;;12.40;99.90;;;;;;4127901;28;20049;-61
2023/10/27 07:04:35;;;;;;;20.63;11.43;;;12.40;99.90;;;;;;4127795;28;20038;-61
2023/10/27 07:06:36;;;;;;;29.33;13.10;;;12.40;99.90;;;;;;4127644;28;20050;-61
2023/10/27 07:08:38;;;;;;;39.83;16.67;;;12.40;99.90;;;;;;4127737;28;20531;-60
2023/10/27 07:10:42;;;;;;;23.83;12.37;;;12.50;99.90;;;;;;4127584;28;20034;-61
2023/10/27 07:12:44;;;;;;;28.87;15.73;;;12.50;99.90;;;;;;4128204;28;20383;-62
2023/10/27 07:14:45;;;;;;;28.43;12.10;;;12.60;99.90;;;;;;4127154;28;20092;-61
2023/10/27 07:16:51;;;;;;;23.93;10.87;;;12.60;99.90;;;;;;4128122;28;20105;-61
2023/10/27 07:18:52;;;;;;;24.47;12.03;;;12.70;99.90;;;;;;4127222;28;20061;-62
2023/10/27 07:20:53;;;;;;;24.63;12.30;;;12.70;99.90;;;;;;4128207;28;20097;-61
2023/10/27 07:22:55;;;;;;;31.73;11.50;;;12.70;99.90;;;;;;4127570;28;20101;-61
2023/10/27 07:24:56;;;;;;;25.70;12.30;;;12.80;99.90;;;;;;4130527;28;20039;-61
2023/10/27 07:26:57;;;;;;;29.33;12.13;;;12.90;99.90;;;;;;4130326;28;20050;-62
2023/10/27 07:28:58;;;;;;;23.33;11.70;;;13.00;99.90;;;;;;4131563;28;20042;-61
2023/10/27 07:30:59;;;;;;;21.70;11.10;;;12.90;99.90;;;;;;4130409;28;20081;-61
2023/10/27 07:33:00;;;;;;;14.13;8.10;;;13.00;99.90;;;;;;4131188;28;20046;-62
2023/10/27 07:35:01;;;;;;;22.57;11.40;;;13.00;99.90;;;;;;4130600;28;20046;-60
2023/10/27 07:37:04;;;;;;;21.88;11.43;;;13.00;99.90;;;;;;4130927;28;20038;-59
2023/10/27 07:39:05;;;;;;;16.45;8.07;;;13.00;99.90;;;;;;4130747;28;20018;-59
2023/10/27 07:41:06;;;;;;;14.38;7.65;;;13.10;99.90;;;;;;4130462;28;20529;-59
2023/10/27 07:43:07;;;;;;;20.98;9.73;;;13.20;99.90;;;;;;4129749;28;20042;-59
2023/10/27 07:45:09;;;;;;;18.00;8.75;;;13.30;99.90;;;;;;4130306;28;20092;-61
2023/10/27 07:47:10;;;;;;;16.85;9.35;;;13.30;99.90;;;;;;4131051;28;20096;-60
2023/10/27 07:49:12;;;;;;;30.63;11.27;;;13.30;99.90;;;;;;4129828;28;20030;-59
2023/10/27 07:51:13;;;;;;;23.17;10.80;;;13.30;99.90;;;;;;4130958;28;20034;-60
2023/10/27 07:53:14;;;;;;;18.33;8.45;;;13.30;99.90;;;;;;4129842;28;20819;-60
2023/10/27 07:55:16;;;;;;;14.00;7.63;;;13.30;99.90;;;;;;4131011;28;20093;-60
2023/10/27 07:57:17;;;;;;;11.77;7.10;;;13.30;99.90;;;;;;4129764;28;20062;-61
2023/10/27 07:59:18;;;;;;;16.13;6.72;;;13.40;99.90;;;;;;4131032;28;20030;-61
2023/10/27 08:01:19;;;;;;;12.60;6.43;;;13.40;99.90;;;;;;4130870;28;20042;-61
2023/10/27 08:03:22;;;;;;;16.30;6.50;;;13.60;99.90;;;;;;4130914;28;20034;-61
2023/10/27 08:05:23;;;;;;;9.73;5.72;;;13.60;99.90;;;;;;4129607;28;20042;-61
2023/10/27 08:07:24;;;;;;;14.32;6.22;;;13.70;99.90;;;;;;4130398;28;20098;-60
2023/10/27 08:09:25;;;;;;;15.98;7.03;;;13.80;99.90;;;;;;4129782;28;20399;-60
2023/10/27 08:11:26;;;;;;;11.60;5.20;;;13.80;99.90;;;;;;4129786;28;20096;-61
2023/10/27 08:13:27;;;;;;;10.82;6.85;;;13.80;99.90;;;;;;4129978;28;20104;-60
2023/10/27 08:15:28;;;;;;;9.63;5.70;;;13.80;99.90;;;;;;4129166;28;20049;-62
2023/10/27 08:17:29;;;;;;;11.00;5.93;;;13.90;99.90;;;;;;4130215;28;20478;-62
2023/10/27 08:19:30;;;;;;;10.95;5.50;;;13.90;99.90;;;;;;4129157;28;20030;-62
2023/10/27 08:21:32;;;;;;;13.05;4.78;;;14.00;99.90;;;;;;4130726;28;20035;-62
2023/10/27 08:23:33;;;;;;;9.48;5.03;;;14.00;99.90;;;;;;4129500;28;20042;-60
2023/10/27 08:25:34;;;;;;;9.38;4.13;;;14.10;99.90;;;;;;4130409;28;20065;-63
2023/10/27 08:27:35;;;;;;;4.30;2.75;;;14.20;99.90;;;;;;4129201;28;20073;-60
2023/10/27 08:29:37;;;;;;;6.97;1.98;;;14.30;99.90;;;;;;4130611;28;20364;-63
2023/10/27 08:31:38;;;;;;;6.07;2.08;;;14.50;99.90;;;;;;4128171;28;20030;-62
2023/10/27 08:33:40;;;;;;;3.75;1.80;;;14.60;99.90;;;;;;4130126;28;20119;-61
2023/10/27 08:35:43;;;;;;;5.80;1.55;;;14.80;99.90;;;;;;4128503;28;20158;-61
2023/10/27 08:37:44;;;;;;;5.97;2.20;;;14.90;99.90;;;;;;4129717;28;20089;-63
2023/10/27 08:39:45;;;;;;;6.90;4.20;;;15.10;99.90;;;;;;4129496;28;20022;-61
2023/10/27 08:41:47;;;;;;;5.18;3.25;;;15.10;99.90;;;;;;4129392;28;20034;-61
2023/10/27 08:43:49;;;;;;;5.30;2.47;;;15.30;99.90;;;;;;4129606;28;20030;-60
2023/10/27 08:45:51;;;;;;;1.55;1.02;;;15.40;99.90;;;;;;4128699;28;20124;-62
2023/10/27 08:47:53;;;;;;;4.20;1.40;;;15.50;99.90;;;;;;4129971;28;20560;-65
2023/10/27 08:49:54;;;;;;;1.90;1.20;;;15.50;99.90;;;;;;4128902;28;20043;-61
2023/10/27 08:51:58;;;;;;;2.78;1.50;;;15.60;99.90;;;;;;4130243;28;20042;-60
2023/10/27 08:54:00;;;;;;;4.47;1.90;;;15.50;99.90;;;;;;4128877;28;20096;-61
2023/10/27 08:56:01;;;;;;;4.45;1.67;;;15.40;99.90;;;;;;4130184;28;20089;-62
2023/10/27 08:58:02;;;;;;;4.28;1.63;;;15.40;99.90;;;;;;4129070;28;20093;-61
2023/10/27 09:00:07;;;;;;;3.10;1.40;;;15.40;99.90;;;;;;4129824;28;20105;-61
2023/10/27 09:02:08;;;;;;;4.00;1.20;;;15.30;99.90;;;;;;4129089;28;20027;-62
2023/10/27 09:04:11;;;;;;;2.90;1.30;;;15.40;99.90;;;;;;4130520;28;20034;-62
2023/10/27 09:06:14;;;;;;;2.80;1.67;;;15.40;99.90;;;;;;4128758;28;20034;-61
2023/10/27 09:08:18;;;;;;;2.75;1.65;;;15.40;99.90;;;;;;4127999;28;20474;-61
2023/10/27 09:10:19;;;;;;;5.30;2.13;;;15.40;99.90;;;;;;4128810;28;20042;-61
2023/10/27 09:12:26;;;;;;;5.47;2.67;;;15.40;99.90;;;;;;4129445;28;20414;-62
2023/10/27 09:14:31;;;;;;;4.53;2.78;;;15.30;99.90;;;;;;4129001;28;20430;-61
2023/10/27 09:16:34;;;;;;;7.03;3.30;;;15.30;99.90;;;;;;4129035;28;20043;-61
2023/10/27 09:18:36;;;;;;;15.05;4.15;;;15.20;99.90;;;;;;4129533;28;20046;-61
2023/10/27 09:20:51;;;;;;;7.53;4.15;;;15.20;99.90;;;;;;4129252;28;20038;-61
2023/10/27 09:23:06;;;;;;;7.55;4.15;;;15.20;99.90;;;;;;4129184;28;20014;-60
2023/10/27 09:25:15;;;;;;;6.97;4.55;;;15.10;99.90;;;;;;4128971;28;20042;-61
2023/10/27 09:27:25;;;;;;;10.23;5.15;;;15.10;99.90;;;;;;4128957;28;20062;-65
2023/10/27 09:29:27;;;;;;;;;;;15.00;99.90;;;;;;4129159;28;20159;-64
2023/10/27 09:31:35;;;;;;;5.05;3.22;;;14.90;99.90;;;;;;4129467;28;19913;-60
2023/10/27 09:33:36;;;;;;;6.45;2.75;;;14.80;99.90;;;;;;4128314;28;20096;-60
2023/10/27 09:35:37;;;;;;;3.08;2.20;;;14.80;99.90;;;;;;4129028;28;20467;-62
2023/10/27 09:37:41;;;;;;;3.55;2.38;;;14.80;99.90;;;;;;4128271;28;20050;-64
2023/10/27 09:39:42;;;;;;;3.05;2.45;;;14.80;99.90;;;;;;4129580;28;20050;-60
2023/10/27 09:41:48;;;;;;;1.83;1.73;;;14.70;99.90;;;;;;4128192;28;20050;-60
2023/10/27 09:43:50;;;;;;;4.25;1.88;;;14.80;99.90;;;;;;4129273;28;20023;-57
2023/10/27 09:45:58;;;;;;;2.55;1.77;;;14.80;99.90;;;;;;4127794;28;20030;-62
2023/10/27 09:48:03;;;;;;;3.33;2.00;;;14.80;99.90;;;;;;4128894;28;20380;-62
2023/10/27 09:50:06;;;;;;;5.93;2.58;;;14.80;99.90;;;;;;4128204;28;20418;-60
2023/10/27 09:52:12;;;;;;;6.28;2.90;;;14.90;99.90;;;;;;4129400;28;20039;-62
2023/10/27 09:54:14;;;;;;;3.65;1.88;;;14.90;99.90;;;;;;4128009;28;20034;-64
2023/10/27 09:56:17;;;;;;;3.33;1.83;;;14.90;99.90;;;;;;4129308;28;20092;-62
2023/10/27 09:58:20;;;;;;;7.63;2.13;;;14.90;99.90;;;;;;4126848;28;20074;-62
2023/10/27 10:00:29;;;;;;;2.97;1.95;;;14.90;99.90;;;;;;4129080;28;20046;-62
2023/10/27 10:02:31;;;;;;;4.40;2.83;;;14.90;99.90;;;;;;4128317;28;20092;-63
2023/10/27 10:04:50;;;;;;;4.20;1.90;;;14.80;99.90;;;;;;4128875;28;20096;-62
2023/10/27 10:06:51;;;;;;;4.43;2.05;;;14.80;99.90;;;;;;4127954;28;20046;-61
2023/10/27 10:09:05;;;;;;;2.38;1.70;;;14.80;99.90;;;;;;4128835;28;20478;-63
2023/10/27 10:11:17;;;;;;;4.97;2.00;;;14.80;99.90;;;;;;4128085;28;20101;-59
2023/10/27 10:13:33;;;;;;;3.17;1.88;;;14.70;99.90;;;;;;4128867;28;20034;-61
2023/10/27 10:15:39;;;;;;;2.10;1.90;;;14.60;99.90;;;;;;4127335;28;20026;-62
2023/10/27 10:17:41;;;;;;;4.57;2.33;;;14.60;99.90;;;;;;4128681;28;20023;-62
2023/10/27 10:19:49;;;;;;;4.07;2.40;;;14.50;99.90;;;;;;4127835;28;20046;-59
2023/10/27 10:21:50;;;;;;;3.30;2.83;;;14.40;99.90;;;;;;4128509;28;20038;-62
2023/10/27 10:23:51;;;;;;;4.40;2.65;;;14.30;99.90;;;;;;4126518;28;20566;-61
2023/10/27 10:25:57;;;;;;;5.95;3.10;;;14.30;99.90;;;;;;4127740;28;20018;-61
2023/10/27 10:28:07;;;;;;;5.43;3.20;;;14.30;99.90;;;;;;4128026;28;20565;-61